createdAt,value
2023-02-11T00:01:26.613Z,27.10
2023-02-11T00:03:55.184Z,27.00
2023-02-11T00:06:23.420Z,25.00
2023-02-11T00:08:51.277Z,26.00
2023-02-11T00:11:20.478Z,26.60
2023-02-11T00:13:48.615Z,26.20
2023-02-11T00:16:19.187Z,24.50
2023-02-11T00:18:47.254Z,25.40
2023-02-11T00:21:21.545Z,24.50
2023-02-11T00:23:49.372Z,25.40
2023-02-11T00:26:20.740Z,24.00
2023-02-11T00:28:50.675Z,25.10
2023-02-11T00:31:20.676Z,24.60
2023-02-11T00:33:49.998Z,24.50
2023-02-11T00:36:20.856Z,24.80
2023-02-11T00:38:49.924Z,24.20
2023-02-11T00:41:18.788Z,24.90
2023-02-11T00:43:46.516Z,23.80
2023-02-11T00:46:15.177Z,25.20
2023-02-11T00:48:42.943Z,25.80
2023-02-11T00:51:11.184Z,27.20
2023-02-11T00:53:38.912Z,27.30
2023-02-11T00:56:07.224Z,26.10
2023-02-11T00:58:35.828Z,25.70
2023-02-11T01:01:04.503Z,26.20
2023-02-11T01:03:32.558Z,26.50
2023-02-11T01:06:00.730Z,26.20
2023-02-11T01:08:28.434Z,25.10
2023-02-11T01:10:59.978Z,24.80
2023-02-11T01:13:28.843Z,24.80
2023-02-11T01:15:57.106Z,25.40
2023-02-11T01:18:25.991Z,26.70
2023-02-11T01:20:54.151Z,25.30
2023-02-11T01:23:22.202Z,26.50
2023-02-11T01:25:50.757Z,24.60
2023-02-11T01:28:21.522Z,25.30
2023-02-11T01:30:49.641Z,25.60
2023-02-11T01:33:17.732Z,26.00
2023-02-11T01:35:46.040Z,26.20
2023-02-11T01:38:20.026Z,26.50
2023-02-11T01:40:49.194Z,26.10
2023-02-11T01:43:17.025Z,26.90
2023-02-11T01:45:44.934Z,27.30
2023-02-11T01:48:15.849Z,28.40
2023-02-11T01:50:44.763Z,27.60
2023-02-11T01:53:31.541Z,29.50
2023-02-11T01:56:18.009Z,28.90
2023-02-11T01:58:47.201Z,29.30
2023-02-11T02:01:19.355Z,28.10
2023-02-11T02:03:49.657Z,29.30
2023-02-11T02:06:25.371Z,29.50
2023-02-11T02:09:02.153Z,28.90
2023-02-11T02:11:30.522Z,29.40
2023-02-11T02:13:58.394Z,30.80
2023-02-11T02:16:32.717Z,29.60
2023-02-11T02:19:20.638Z,29.50
2023-02-11T02:21:51.202Z,30.20
2023-02-11T02:24:30.691Z,29.90
2023-02-11T02:27:21.208Z,31.50
2023-02-11T02:30:03.491Z,30.00
2023-02-11T02:32:37.212Z,31.80
2023-02-11T02:35:04.993Z,32.10
2023-02-11T02:37:41.874Z,31.40
2023-02-11T02:40:32.800Z,32.60
2023-02-11T02:43:01.303Z,31.90
2023-02-11T02:45:29.192Z,31.40
2023-02-11T02:47:56.907Z,32.80
2023-02-11T02:50:31.899Z,30.50
2023-02-11T02:53:20.329Z,31.30
2023-02-11T02:56:14.592Z,30.90
2023-02-11T02:58:54.577Z,31.60
2023-02-11T03:01:38.661Z,31.50
2023-02-11T03:04:21.555Z,31.50
2023-02-11T03:07:00.848Z,31.10
2023-02-11T03:09:42.748Z,31.30
2023-02-11T03:12:12.092Z,30.60
2023-02-11T03:14:40.495Z,30.90
2023-02-11T03:17:08.951Z,30.50
2023-02-11T03:19:40.427Z,30.80
2023-02-11T03:22:20.916Z,30.80
2023-02-11T03:24:48.956Z,30.40
2023-02-11T03:27:30.601Z,30.50
2023-02-11T03:30:06.703Z,29.00
2023-02-11T03:32:41.953Z,29.90
2023-02-11T03:35:18.118Z,30.90
2023-02-11T03:37:52.151Z,31.00
2023-02-11T03:40:22.633Z,29.50
2023-02-11T03:42:57.723Z,30.80
2023-02-11T03:45:26.232Z,29.60
2023-02-11T03:48:01.628Z,30.40
2023-02-11T03:50:31.985Z,29.40
2023-02-11T03:53:02.297Z,30.40
2023-02-11T03:55:33.426Z,31.40
2023-02-11T03:58:01.345Z,29.80
2023-02-11T04:00:35.068Z,30.50
2023-02-11T04:03:03.776Z,31.80
2023-02-11T04:05:32.232Z,28.60
2023-02-11T04:07:59.950Z,29.10
2023-02-11T04:10:27.635Z,30.00
2023-02-11T04:12:55.516Z,30.10
2023-02-11T04:15:24.397Z,29.70
2023-02-11T04:17:52.461Z,30.20
2023-02-11T04:20:20.541Z,30.20
2023-02-11T04:22:48.198Z,29.00
2023-02-11T04:25:16.164Z,29.40
2023-02-11T04:27:43.800Z,29.50
2023-02-11T04:30:11.941Z,31.20
2023-02-11T04:32:39.578Z,29.70
2023-02-11T04:35:07.689Z,30.50
2023-02-11T04:37:35.764Z,30.60
2023-02-11T04:40:03.760Z,31.90
2023-02-11T04:42:31.368Z,32.60
2023-02-11T04:44:58.996Z,30.70
2023-02-11T04:47:26.686Z,32.40
2023-02-11T04:49:54.384Z,30.50
2023-02-11T04:52:22.048Z,31.70
2023-02-11T04:54:49.809Z,30.50
2023-02-11T04:57:17.474Z,31.90
2023-02-11T04:59:45.137Z,31.50
2023-02-11T05:02:12.840Z,31.20
2023-02-11T05:04:40.490Z,31.10
2023-02-11T05:07:08.126Z,29.90
2023-02-11T05:09:35.836Z,30.80
2023-02-11T05:12:03.776Z,31.10
2023-02-11T05:14:32.416Z,31.90
2023-02-11T05:17:00.103Z,31.80
2023-02-11T05:19:28.039Z,33.90
2023-02-11T05:22:02.574Z,32.00
2023-02-11T05:24:32.277Z,32.50
2023-02-11T05:27:00.330Z,35.00
2023-02-11T05:29:28.329Z,33.70
2023-02-11T05:31:56.055Z,33.00
2023-02-11T05:34:23.671Z,34.80
2023-02-11T05:36:51.412Z,32.20
2023-02-11T05:39:19.024Z,34.90
2023-02-11T05:41:46.725Z,34.60
2023-02-11T05:44:14.424Z,34.30
2023-02-11T05:46:42.088Z,35.60
2023-02-11T05:49:10.040Z,35.60
2023-02-11T05:51:37.687Z,35.40
2023-02-11T05:54:05.473Z,34.90
2023-02-11T05:56:33.152Z,34.90
2023-02-11T05:59:00.905Z,36.10
2023-02-11T06:01:28.564Z,34.00
2023-02-11T06:03:56.331Z,35.20
2023-02-11T06:06:24.323Z,34.80
2023-02-11T06:08:52.197Z,34.90
2023-02-11T06:11:20.301Z,36.10
2023-02-11T06:13:47.982Z,36.30
2023-02-11T06:16:15.735Z,35.90
2023-02-11T06:18:43.439Z,34.60
2023-02-11T06:21:11.555Z,35.00
2023-02-11T06:23:39.791Z,37.20
2023-02-11T06:26:09.115Z,36.50
2023-02-11T06:28:38.781Z,36.30
2023-02-11T06:31:09.729Z,35.90
2023-02-11T06:33:38.038Z,36.50
2023-02-11T06:36:13.484Z,37.60
2023-02-11T06:38:41.256Z,36.30
2023-02-11T06:41:13.153Z,38.00
2023-02-11T06:43:41.419Z,38.60
2023-02-11T06:46:09.374Z,37.70
2023-02-11T06:48:37.070Z,39.00
2023-02-11T06:51:09.655Z,39.30
2023-02-11T06:53:39.839Z,38.30
2023-02-11T06:56:10.154Z,39.20
2023-02-11T06:58:38.233Z,40.30
2023-02-11T07:01:07.770Z,39.60
2023-02-11T07:03:36.617Z,40.20
2023-02-11T07:06:05.897Z,41.10
2023-02-11T07:08:34.836Z,41.20
2023-02-11T07:11:09.672Z,40.80
2023-02-11T07:13:37.483Z,41.30
2023-02-11T07:16:10.866Z,40.20
2023-02-11T07:18:38.785Z,41.40
2023-02-11T07:21:07.696Z,40.50
2023-02-11T07:23:35.893Z,40.30
2023-02-11T07:26:05.366Z,40.50
2023-02-11T07:28:35.651Z,41.40
2023-02-11T07:31:07.935Z,42.70
2023-02-11T07:33:36.421Z,40.00
2023-02-11T07:36:06.792Z,40.60
2023-02-11T07:38:35.490Z,41.60
2023-02-11T07:41:06.238Z,40.90
2023-02-11T07:43:34.236Z,43.40
2023-02-11T07:46:06.710Z,42.70
2023-02-11T07:48:34.941Z,44.20
2023-02-11T07:51:06.844Z,43.30
2023-02-11T07:53:34.501Z,42.80
2023-02-11T07:56:03.965Z,45.30
2023-02-11T07:58:32.044Z,46.60
2023-02-11T08:01:02.278Z,46.30
2023-02-11T08:03:30.020Z,47.70
2023-02-11T08:05:57.800Z,48.00
2023-02-11T08:08:28.389Z,51.90
2023-02-11T08:10:56.050Z,51.80
2023-02-11T08:13:24.121Z,52.70
2023-02-11T08:15:51.964Z,53.00
2023-02-11T08:18:19.853Z,53.90
2023-02-11T08:20:47.564Z,53.80
2023-02-11T08:23:15.336Z,54.40
2023-02-11T08:25:43.268Z,54.30
2023-02-11T08:28:10.960Z,57.00
2023-02-11T08:30:38.721Z,56.40
2023-02-11T08:33:06.476Z,55.50
2023-02-11T08:35:36.205Z,56.20
2023-02-11T08:38:03.885Z,57.00
2023-02-11T08:40:31.470Z,54.20
2023-02-11T08:42:59.157Z,56.10
2023-02-11T08:45:26.827Z,54.90
2023-02-11T08:47:54.710Z,56.10
2023-02-11T08:50:22.662Z,56.00
2023-02-11T08:52:51.887Z,56.60
2023-02-11T08:55:19.663Z,57.40
2023-02-11T08:57:47.809Z,58.60
2023-02-11T09:00:16.532Z,57.60
2023-02-11T09:02:44.212Z,55.90
2023-02-11T09:05:12.403Z,57.70
2023-02-11T09:07:40.090Z,53.50
2023-02-11T09:10:08.598Z,56.20
2023-02-11T09:12:36.328Z,55.30
2023-02-11T09:15:04.590Z,53.40
2023-02-11T09:17:32.427Z,55.00
2023-02-11T09:20:00.235Z,55.70
2023-02-11T09:22:28.190Z,55.60
2023-02-11T09:24:55.860Z,56.80
2023-02-11T09:27:23.593Z,58.30
2023-02-11T09:29:51.418Z,63.00
2023-02-11T09:32:19.060Z,61.70
2023-02-11T09:34:46.777Z,60.10
2023-02-11T09:37:14.453Z,58.80
2023-02-11T09:39:42.151Z,58.00
2023-02-11T09:42:12.863Z,58.10
2023-02-11T09:44:40.707Z,58.80
2023-02-11T09:47:32.328Z,59.20
2023-02-11T09:50:11.877Z,58.60
2023-02-11T09:53:06.844Z,60.00
2023-02-11T09:55:38.015Z,60.70
2023-02-11T09:58:25.937Z,60.30
2023-02-11T10:01:02.915Z,61.90
2023-02-11T10:03:55.254Z,61.60
2023-02-11T10:06:38.383Z,62.80
2023-02-11T10:09:17.156Z,62.40
2023-02-11T10:12:22.485Z,68.30
2023-02-11T10:15:14.157Z,67.40
2023-02-11T10:18:03.866Z,66.90
2023-02-11T10:20:35.841Z,67.70
2023-02-11T10:23:24.849Z,69.20
2023-02-11T10:25:54.760Z,64.50
2023-02-11T10:28:33.700Z,65.80
2023-02-11T10:31:05.506Z,62.40
2023-02-11T10:33:56.849Z,66.00
2023-02-11T10:36:29.128Z,64.50
2023-02-11T10:39:00.231Z,65.80
2023-02-11T10:41:34.769Z,65.60
2023-02-11T10:44:03.407Z,65.30
2023-02-11T10:46:34.212Z,66.10
2023-02-11T10:49:03.466Z,66.70
2023-02-11T10:51:35.589Z,68.10
2023-02-11T10:54:13.863Z,67.90
2023-02-11T10:56:52.928Z,68.20
2023-02-11T10:59:31.945Z,68.90
2023-02-11T11:02:00.773Z,69.00
2023-02-11T11:04:41.376Z,68.80
2023-02-11T11:07:12.236Z,70.10
2023-02-11T11:10:34.350Z,70.20
2023-02-11T11:13:02.304Z,73.30
2023-02-11T11:15:31.639Z,71.40
2023-02-11T11:18:22.537Z,74.70
2023-02-11T11:20:59.975Z,78.00
2023-02-11T11:23:30.177Z,79.80
2023-02-11T11:26:05.260Z,78.30
2023-02-11T11:28:58.526Z,78.90
2023-02-11T11:31:29.034Z,77.30
2023-02-11T11:33:58.534Z,81.00
2023-02-11T11:36:46.508Z,77.10
2023-02-11T11:39:30.038Z,80.80
2023-02-11T11:42:05.560Z,82.90
2023-02-11T11:44:36.128Z,78.70
2023-02-11T11:47:09.139Z,87.40
2023-02-11T11:50:02.799Z,82.10
2023-02-11T11:52:51.011Z,86.20
2023-02-11T11:55:25.670Z,80.00
2023-02-11T11:57:53.528Z,78.90
2023-02-11T12:00:36.563Z,76.50
2023-02-11T12:03:18.807Z,73.90
2023-02-11T12:05:58.226Z,79.00
2023-02-11T12:08:30.399Z,76.00
2023-02-11T12:11:30.856Z,77.20
2023-02-11T12:14:20.268Z,76.20
2023-02-11T12:16:53.307Z,76.90
2023-02-11T12:19:42.778Z,77.00
2023-02-11T12:22:36.526Z,75.90
2023-02-11T12:25:28.653Z,77.40
2023-02-11T12:28:18.969Z,76.50
2023-02-11T12:30:49.978Z,73.50
2023-02-11T12:33:27.342Z,74.70
2023-02-11T12:36:34.860Z,76.80
2023-02-11T12:39:17.745Z,75.20
2023-02-11T12:42:28.473Z,75.00
2023-02-11T12:45:11.215Z,76.50
2023-02-11T12:47:57.345Z,78.40
2023-02-11T12:50:33.559Z,72.10
2023-02-11T12:53:26.045Z,73.10
2023-02-11T12:56:00.319Z,83.40
2023-02-11T12:58:44.022Z,76.80
2023-02-11T13:01:20.136Z,78.20
2023-02-11T13:04:01.828Z,74.40
2023-02-11T13:06:40.630Z,77.50
2023-02-11T13:09:18.868Z,77.20
2023-02-11T13:11:52.090Z,76.10
2023-02-11T13:14:27.794Z,73.20
2023-02-11T13:16:58.460Z,72.60
2023-02-11T13:19:39.897Z,72.00
2023-02-11T13:22:10.391Z,72.90
2023-02-11T13:24:49.684Z,75.50
2023-02-11T13:27:26.560Z,72.80
2023-02-11T13:30:18.578Z,71.50
2023-02-11T13:32:58.225Z,69.20
2023-02-11T13:35:57.994Z,67.90
2023-02-11T13:38:28.070Z,69.30
2023-02-11T13:41:00.132Z,70.20
2023-02-11T13:43:30.462Z,69.20
2023-02-11T13:46:00.849Z,70.10
2023-02-11T13:48:45.683Z,71.00
2023-02-11T13:51:16.914Z,69.40
2023-02-11T13:53:50.128Z,70.20
2023-02-11T13:56:32.032Z,68.40
2023-02-11T13:59:02.434Z,69.10
2023-02-11T14:02:11.401Z,70.50
2023-02-11T14:05:22.633Z,69.10
2023-02-11T14:08:30.615Z,70.90
2023-02-11T14:10:59.180Z,71.90
2023-02-11T14:13:29.412Z,74.10
2023-02-11T14:16:07.283Z,74.30
2023-02-11T14:18:35.044Z,69.90
2023-02-11T14:21:13.072Z,73.00
2023-02-11T14:23:41.490Z,71.50
2023-02-11T14:26:26.952Z,70.70
2023-02-11T14:29:01.634Z,70.00
2023-02-11T14:31:36.400Z,69.90
2023-02-11T14:34:16.934Z,68.30
2023-02-11T14:37:03.224Z,67.40
2023-02-11T14:39:40.345Z,65.80
2023-02-11T14:42:18.977Z,67.70
2023-02-11T14:44:49.273Z,64.00
2023-02-11T14:47:24.070Z,65.30
2023-02-11T14:49:51.901Z,65.80
2023-02-11T14:52:31.096Z,63.40
2023-02-11T14:55:31.218Z,61.60
2023-02-11T14:58:17.924Z,62.10
2023-02-11T15:00:59.417Z,62.30
2023-02-11T15:03:38.505Z,67.10
2023-02-11T15:06:26.235Z,62.50
2023-02-11T15:09:02.089Z,61.30
2023-02-11T15:11:34.570Z,58.40
2023-02-11T15:14:09.016Z,58.60
2023-02-11T15:16:40.819Z,58.00
2023-02-11T15:19:44.704Z,57.50
2023-02-11T15:22:22.248Z,56.50
2023-02-11T15:25:04.066Z,55.30
2023-02-11T15:27:53.903Z,57.70
2023-02-11T15:30:21.529Z,55.50
2023-02-11T15:32:50.973Z,53.60
2023-02-11T15:35:18.957Z,55.50
2023-02-11T15:37:48.324Z,58.00
2023-02-11T15:40:19.309Z,54.30
2023-02-11T15:43:16.345Z,55.20
2023-02-11T15:45:55.087Z,54.20
2023-02-11T15:48:28.475Z,56.00
2023-02-11T15:50:59.920Z,54.80
2023-02-11T15:53:56.985Z,56.00
2023-02-11T15:56:29.785Z,53.10
2023-02-11T15:59:00.184Z,54.90
2023-02-11T16:01:36.606Z,53.20
2023-02-11T16:04:05.758Z,55.90
2023-02-11T16:06:42.576Z,51.10
2023-02-11T16:09:11.070Z,51.60
2023-02-11T16:11:47.800Z,51.60
2023-02-11T16:14:23.400Z,51.70
2023-02-11T16:16:53.903Z,50.80
2023-02-11T16:19:25.296Z,49.20
2023-02-11T16:21:56.823Z,49.90
2023-02-11T16:24:30.274Z,50.20
2023-02-11T16:27:00.792Z,50.30
2023-02-11T16:29:30.947Z,47.30
2023-02-11T16:32:15.814Z,50.60
2023-02-11T16:34:43.662Z,50.70
2023-02-11T16:37:11.486Z,49.10
2023-02-11T16:39:39.401Z,49.50
2023-02-11T16:42:07.703Z,48.50
2023-02-11T16:44:35.808Z,51.80
2023-02-11T16:47:05.867Z,49.30
2023-02-11T16:49:37.323Z,44.90
2023-02-11T16:52:12.782Z,44.60
2023-02-11T16:54:40.430Z,46.00
2023-02-11T16:57:15.700Z,46.90
2023-02-11T16:59:44.248Z,49.60
2023-02-11T17:02:18.714Z,47.20
2023-02-11T17:04:46.828Z,46.20
2023-02-11T17:07:14.638Z,43.40
2023-02-11T17:09:42.294Z,42.70
2023-02-11T17:12:09.945Z,41.30
2023-02-11T17:14:37.972Z,42.20
2023-02-11T17:17:05.715Z,40.00
2023-02-11T17:19:33.404Z,40.30
2023-02-11T17:22:01.088Z,39.00
2023-02-11T17:24:28.788Z,40.00
2023-02-11T17:26:56.861Z,39.80
2023-02-11T17:29:25.578Z,44.00
2023-02-11T17:31:53.722Z,41.10
2023-02-11T17:34:22.537Z,38.90
2023-02-11T17:36:50.407Z,40.20
2023-02-11T17:39:19.257Z,40.10
2023-02-11T17:41:46.924Z,38.40
2023-02-11T17:44:16.370Z,42.90
2023-02-11T17:46:44.197Z,36.90
2023-02-11T17:49:12.262Z,35.10
2023-02-11T17:51:40.650Z,33.60
2023-02-11T17:54:12.181Z,35.20
2023-02-11T17:56:40.452Z,36.20
2023-02-11T17:59:09.612Z,38.60
2023-02-11T18:01:38.592Z,39.50
2023-02-11T18:04:07.660Z,38.50
2023-02-11T18:06:35.552Z,36.30
2023-02-11T18:09:04.399Z,35.50
2023-02-11T18:11:34.047Z,38.20
2023-02-11T18:14:04.620Z,36.50
2023-02-11T18:16:34.946Z,35.10
2023-02-11T18:19:03.505Z,36.30
2023-02-11T18:21:31.259Z,36.60
2023-02-11T18:24:02.618Z,33.70
2023-02-11T18:26:33.837Z,35.60
2023-02-11T18:29:03.792Z,40.60
2023-02-11T18:31:31.829Z,36.50
2023-02-11T18:33:59.558Z,41.10
2023-02-11T18:36:27.220Z,39.50
2023-02-11T18:38:57.084Z,36.50
2023-02-11T18:41:24.742Z,49.30
2023-02-11T18:43:53.063Z,44.50
2023-02-11T18:46:20.826Z,46.00
2023-02-11T18:48:50.031Z,39.30
2023-02-11T18:51:21.277Z,42.60
2023-02-11T18:53:48.962Z,41.60
2023-02-11T18:56:19.156Z,44.60
2023-02-11T18:58:47.457Z,43.50
2023-02-11T19:01:20.542Z,37.30
2023-02-11T19:03:48.719Z,38.20
2023-02-11T19:06:19.735Z,36.90
2023-02-11T19:08:47.902Z,41.50
2023-02-11T19:11:17.965Z,39.50
2023-02-11T19:13:49.565Z,42.80
2023-02-11T19:16:19.819Z,42.80
2023-02-11T19:18:47.784Z,39.40
2023-02-11T19:21:15.458Z,43.70
2023-02-11T19:23:43.130Z,45.70
2023-02-11T19:26:10.809Z,44.00
2023-02-11T19:28:39.201Z,46.50
2023-02-11T19:31:08.799Z,44.30
2023-02-11T19:33:36.845Z,39.50
2023-02-11T19:36:06.841Z,38.80
2023-02-11T19:38:35.594Z,42.80
2023-02-11T19:41:03.422Z,42.60
2023-02-11T19:43:31.068Z,40.10
2023-02-11T19:46:01.520Z,41.70
2023-02-11T19:48:30.135Z,44.30
2023-02-11T19:50:59.324Z,45.30
2023-02-11T19:53:27.111Z,42.80
2023-02-11T19:55:54.819Z,46.30
2023-02-11T19:58:22.592Z,53.40
2023-02-11T20:00:50.257Z,49.20
2023-02-11T20:03:18.241Z,48.60
2023-02-11T20:05:48.107Z,45.50
2023-02-11T20:08:17.070Z,40.10
2023-02-11T20:10:44.865Z,43.80
2023-02-11T20:13:12.525Z,41.30
2023-02-11T20:15:40.315Z,44.40
2023-02-11T20:18:08.356Z,41.80
2023-02-11T20:20:38.189Z,38.40
2023-02-11T20:23:05.856Z,38.30
2023-02-11T20:25:33.624Z,32.40
2023-02-11T20:28:01.305Z,39.00
2023-02-11T20:30:28.962Z,46.50
2023-02-11T20:32:58.465Z,47.40
2023-02-11T20:35:26.184Z,51.90
2023-02-11T20:37:53.910Z,40.70
2023-02-11T20:40:21.539Z,41.50
2023-02-11T20:42:49.235Z,39.00
2023-02-11T20:45:17.008Z,39.50
2023-02-11T20:47:44.669Z,38.40
2023-02-11T20:50:12.372Z,37.70
2023-02-11T20:52:40.327Z,39.30
2023-02-11T20:55:08.166Z,37.70
2023-02-11T20:57:36.156Z,39.90
2023-02-11T21:00:04.420Z,41.40
2023-02-11T21:02:32.311Z,42.00
2023-02-11T21:05:00.098Z,41.50
2023-02-11T21:07:29.330Z,37.20
2023-02-11T21:09:57.328Z,35.50
2023-02-11T21:12:24.972Z,36.70
2023-02-11T21:14:54.017Z,36.60
2023-02-11T21:17:21.877Z,40.30
2023-02-11T21:19:49.565Z,36.60
2023-02-11T21:22:17.167Z,35.90
2023-02-11T21:24:44.843Z,36.30
2023-02-11T21:27:12.722Z,38.20
2023-02-11T21:29:52.726Z,36.20
2023-02-11T21:32:21.375Z,38.30
2023-02-11T21:34:49.246Z,37.20
2023-02-11T21:37:16.997Z,35.50
2023-02-11T21:39:44.670Z,38.00
2023-02-11T21:42:12.333Z,37.50
2023-02-11T21:44:40.106Z,38.30
2023-02-11T21:47:07.966Z,37.70
2023-02-11T21:49:35.625Z,36.30
2023-02-11T21:52:03.371Z,35.80
2023-02-11T21:54:32.233Z,35.70
2023-02-11T21:57:02.980Z,35.60
2023-02-11T21:59:31.850Z,38.80
2023-02-11T22:01:59.578Z,38.20
2023-02-11T22:04:27.480Z,36.70
2023-02-11T22:06:55.365Z,37.60
2023-02-11T22:09:23.004Z,36.40
2023-02-11T22:11:50.710Z,35.80
2023-02-11T22:14:18.472Z,30.10
2023-02-11T22:16:46.974Z,31.80
2023-02-11T22:19:14.781Z,29.70
2023-02-11T22:21:43.541Z,28.30
2023-02-11T22:24:11.309Z,26.90
2023-02-11T22:26:39.042Z,25.30
2023-02-11T22:29:06.813Z,26.00
2023-02-11T22:31:35.132Z,26.30
2023-02-11T22:34:04.245Z,27.00
2023-02-11T22:36:34.652Z,26.10
2023-02-11T22:39:08.350Z,26.60
2023-02-11T22:41:39.012Z,29.00
2023-02-11T22:44:07.305Z,28.40
2023-02-11T22:46:35.384Z,28.50
2023-02-11T22:49:04.106Z,27.60
2023-02-11T22:51:31.976Z,30.20
2023-02-11T22:54:05.229Z,31.20
2023-02-11T22:56:34.236Z,30.50
2023-02-11T22:59:05.279Z,31.60
2023-02-11T23:01:33.033Z,29.10
2023-02-11T23:04:02.661Z,27.80
2023-02-11T23:06:30.495Z,30.30
2023-02-11T23:08:58.221Z,28.00
2023-02-11T23:11:29.232Z,29.00
2023-02-11T23:13:57.962Z,27.30
2023-02-11T23:16:29.413Z,26.00
2023-02-11T23:19:00.228Z,27.10
2023-02-11T23:21:30.581Z,26.70
2023-02-11T23:24:01.357Z,28.30
2023-02-11T23:26:29.667Z,25.40
2023-02-11T23:28:58.436Z,25.10
2023-02-11T23:31:29.182Z,26.60
2023-02-11T23:33:56.867Z,25.80
2023-02-11T23:36:24.619Z,28.50
2023-02-11T23:38:52.494Z,22.90
2023-02-11T23:41:20.785Z,23.50
2023-02-11T23:43:53.064Z,23.50
2023-02-11T23:46:24.845Z,21.90
2023-02-11T23:48:53.024Z,20.40
2023-02-11T23:51:21.501Z,16.90
2023-02-11T23:53:50.306Z,10.40
2023-02-11T23:56:26.101Z,8.90
2023-02-11T23:58:56.202Z,8.40
